sensor_id;sensor_type;location;lat;lon;timestamp;P1;durP1;ratioP1;P2;durP2;ratioP2
2564;SDS011;1292;48.020;7.822;2023-04-25T05:47:30;2.30;;;2.10;;
2564;SDS011;1292;48.020;7.822;2023-04-25T05:49:56;3.73;;;1.93;;
2564;SDS011;1292;48.020;7.822;2023-04-25T05:52:23;2.03;;;1.50;;
2564;SDS011;1292;48.020;7.822;2023-04-25T05:54:50;2.80;;;1.40;;
2564;SDS011;1292;48.020;7.822;2023-04-25T05:57:21;2.33;;;1.53;;
2564;SDS011;1292;48.020;7.822;2023-04-25T05:59:49;6.43;;;4.10;;
2564;SDS011;1292;48.020;7.822;2023-04-25T06:02:16;4.20;;;1.77;;
2564;SDS011;1292;48.020;7.822;2023-04-25T06:04:44;1.97;;;1.30;;
2564;SDS011;1292;48.020;7.822;2023-04-25T06:07:11;1.43;;;1.30;;
2564;SDS011;1292;48.020;7.822;2023-04-25T06:09:38;2.40;;;2.20;;
2564;SDS011;1292;48.020;7.822;2023-04-25T06:12:05;1.87;;;1.50;;
2564;SDS011;1292;48.020;7.822;2023-04-25T06:14:32;2.03;;;1.77;;
2564;SDS011;1292;48.020;7.822;2023-04-25T06:16:59;2.03;;;1.93;;
2564;SDS011;1292;48.020;7.822;2023-04-25T06:19:31;1.80;;;1.70;;
2564;SDS011;1292;48.020;7.822;2023-04-25T06:21:59;4.03;;;1.70;;
2564;SDS011;1292;48.020;7.822;2023-04-25T06:24:26;2.20;;;1.50;;
2564;SDS011;1292;48.020;7.822;2023-04-25T06:26:53;2.30;;;1.60;;
2564;SDS011;1292;48.020;7.822;2023-04-25T06:29:20;2.20;;;2.00;;
2564;SDS011;1292;48.020;7.822;2023-04-25T06:31:47;2.13;;;1.50;;
2564;SDS011;1292;48.020;7.822;2023-04-25T06:34:13;2.13;;;1.93;;
2564;SDS011;1292;48.020;7.822;2023-04-25T06:36:40;1.80;;;1.23;;
2564;SDS011;1292;48.020;7.822;2023-04-25T06:39:08;1.10;;;1.00;;
2564;SDS011;1292;48.020;7.822;2023-04-25T06:41:35;1.10;;;1.07;;
2564;SDS011;1292;48.020;7.822;2023-04-25T06:44:02;1.47;;;1.20;;
2564;SDS011;1292;48.020;7.822;2023-04-25T06:46:29;3.73;;;1.40;;
2564;SDS011;1292;48.020;7.822;2023-04-25T06:48:55;1.30;;;1.20;;
2564;SDS011;1292;48.020;7.822;2023-04-25T06:51:22;2.07;;;1.53;;
2564;SDS011;1292;48.020;7.822;2023-04-25T06:53:49;1.50;;;1.40;;
2564;SDS011;1292;48.020;7.822;2023-04-25T06:56:17;2.30;;;2.10;;
2564;SDS011;1292;48.020;7.822;2023-04-25T06:58:44;1.80;;;1.50;;
2564;SDS011;1292;48.020;7.822;2023-04-25T07:01:11;2.93;;;1.63;;
2564;SDS011;1292;48.020;7.822;2023-04-25T07:03:38;3.37;;;1.87;;
2564;SDS011;1292;48.020;7.822;2023-04-25T07:06:05;2.70;;;1.97;;
2564;SDS011;1292;48.020;7.822;2023-04-25T07:08:32;3.20;;;1.93;;
2564;SDS011;1292;48.020;7.822;2023-04-25T07:10:59;3.00;;;2.10;;
2564;SDS011;1292;48.020;7.822;2023-04-25T07:13:27;2.20;;;1.90;;
2564;SDS011;1292;48.020;7.822;2023-04-25T07:15:54;3.27;;;2.20;;
2564;SDS011;1292;48.020;7.822;2023-04-25T07:18:22;2.63;;;2.43;;
2564;SDS011;1292;48.020;7.822;2023-04-25T07:20:48;4.80;;;2.37;;
2564;SDS011;1292;48.020;7.822;2023-04-25T07:23:15;3.80;;;2.30;;
2564;SDS011;1292;48.020;7.822;2023-04-25T07:25:42;5.53;;;2.27;;
2564;SDS011;1292;48.020;7.822;2023-04-25T07:28:09;3.90;;;2.20;;
2564;SDS011;1292;48.020;7.822;2023-04-25T07:30:37;10.77;;;3.47;;
2564;SDS011;1292;48.020;7.822;2023-04-25T07:33:04;3.13;;;2.83;;
2564;SDS011;1292;48.020;7.822;2023-04-25T07:35:31;2.27;;;2.00;;
2564;SDS011;1292;48.020;7.822;2023-04-25T07:37:57;4.17;;;2.37;;
2564;SDS011;1292;48.020;7.822;2023-04-25T07:40:25;2.67;;;2.43;;
2564;SDS011;1292;48.020;7.822;2023-04-25T07:42:51;2.80;;;2.60;;
2564;SDS011;1292;48.020;7.822;2023-04-25T07:45:18;5.67;;;3.13;;
2564;SDS011;1292;48.020;7.822;2023-04-25T07:47:46;2.67;;;2.47;;
2564;SDS011;1292;48.020;7.822;2023-04-25T07:50:13;5.83;;;2.50;;
2564;SDS011;1292;48.020;7.822;2023-04-25T07:52:40;6.97;;;2.87;;
2564;SDS011;1292;48.020;7.822;2023-04-25T07:55:07;3.53;;;2.90;;
2564;SDS011;1292;48.020;7.822;2023-04-25T07:57:34;7.10;;;3.40;;
2564;SDS011;1292;48.020;7.822;2023-04-25T08:00:02;5.10;;;2.80;;
2564;SDS011;1292;48.020;7.822;2023-04-25T08:02:33;2.90;;;2.63;;
2564;SDS011;1292;48.020;7.822;2023-04-25T08:05:02;2.90;;;2.33;;
2564;SDS011;1292;48.020;7.822;2023-04-25T08:07:30;3.20;;;2.83;;
2564;SDS011;1292;48.020;7.822;2023-04-25T08:09:56;9.17;;;2.87;;
2564;SDS011;1292;48.020;7.822;2023-04-25T08:12:23;4.47;;;3.03;;
2564;SDS011;1292;48.020;7.822;2023-04-25T08:14:51;5.27;;;3.40;;
2564;SDS011;1292;48.020;7.822;2023-04-25T08:17:18;4.00;;;3.43;;
2564;SDS011;1292;48.020;7.822;2023-04-25T08:19:45;3.23;;;2.70;;
2564;SDS011;1292;48.020;7.822;2023-04-25T08:22:13;2.83;;;2.60;;
2564;SDS011;1292;48.020;7.822;2023-04-25T08:24:40;2.90;;;2.70;;
2564;SDS011;1292;48.020;7.822;2023-04-25T08:27:07;3.30;;;2.53;;
2564;SDS011;1292;48.020;7.822;2023-04-25T08:29:34;4.23;;;2.63;;
2564;SDS011;1292;48.020;7.822;2023-04-25T08:32:00;2.93;;;2.73;;
2564;SDS011;1292;48.020;7.822;2023-04-25T08:34:27;2.87;;;2.57;;
2564;SDS011;1292;48.020;7.822;2023-04-25T08:36:54;3.07;;;2.77;;
2564;SDS011;1292;48.020;7.822;2023-04-25T08:39:22;4.30;;;3.40;;
2564;SDS011;1292;48.020;7.822;2023-04-25T08:41:49;4.87;;;3.47;;
2564;SDS011;1292;48.020;7.822;2023-04-25T08:44:17;3.60;;;3.30;;
2564;SDS011;1292;48.020;7.822;2023-04-25T08:46:47;3.23;;;2.93;;
2564;SDS011;1292;48.020;7.822;2023-04-25T08:49:15;4.00;;;3.50;;
2564;SDS011;1292;48.020;7.822;2023-04-25T08:51:44;3.20;;;2.63;;
2564;SDS011;1292;48.020;7.822;2023-04-25T08:54:13;4.70;;;3.30;;
2564;SDS011;1292;48.020;7.822;2023-04-25T08:56:43;6.50;;;5.50;;
2564;SDS011;1292;48.020;7.822;2023-04-25T08:59:11;12.13;;;8.50;;
2564;SDS011;1292;48.020;7.822;2023-04-25T09:01:38;5.83;;;5.23;;
2564;SDS011;1292;48.020;7.822;2023-04-25T09:04:05;4.63;;;4.20;;
2564;SDS011;1292;48.020;7.822;2023-04-25T09:06:33;5.93;;;3.97;;
2564;SDS011;1292;48.020;7.822;2023-04-25T09:09:01;3.37;;;3.07;;
2564;SDS011;1292;48.020;7.822;2023-04-25T09:11:30;3.50;;;2.80;;
2564;SDS011;1292;48.020;7.822;2023-04-25T09:14:11;3.40;;;3.10;;
2564;SDS011;1292;48.020;7.822;2023-04-25T09:16:57;3.47;;;2.80;;
2564;SDS011;1292;48.020;7.822;2023-04-25T09:19:26;3.63;;;2.77;;
2564;SDS011;1292;48.020;7.822;2023-04-25T09:21:53;4.23;;;3.20;;
2564;SDS011;1292;48.020;7.822;2023-04-25T09:24:29;3.43;;;2.33;;
2564;SDS011;1292;48.020;7.822;2023-04-25T09:26:57;4.27;;;3.87;;
2564;SDS011;1292;48.020;7.822;2023-04-25T09:29:30;2.40;;;2.20;;
2564;SDS011;1292;48.020;7.822;2023-04-25T09:32:10;3.57;;;2.33;;
2564;SDS011;1292;48.020;7.822;2023-04-25T09:34:45;3.13;;;2.83;;
2564;SDS011;1292;48.020;7.822;2023-04-25T09:37:16;3.57;;;2.90;;
2564;SDS011;1292;48.020;7.822;2023-04-25T09:39:44;4.00;;;3.20;;
2564;SDS011;1292;48.020;7.822;2023-04-25T09:42:12;3.37;;;3.10;;
2564;SDS011;1292;48.020;7.822;2023-04-25T09:44:43;6.57;;;3.30;;
2564;SDS011;1292;48.020;7.822;2023-04-25T09:47:10;3.90;;;3.20;;
2564;SDS011;1292;48.020;7.822;2023-04-25T09:49:40;4.43;;;3.17;;
2564;SDS011;1292;48.020;7.822;2023-04-25T09:52:08;3.53;;;2.50;;
2564;SDS011;1292;48.020;7.822;2023-04-25T09:54:39;3.70;;;2.30;;
2564;SDS011;1292;48.020;7.822;2023-04-25T09:57:08;2.50;;;1.83;;
2564;SDS011;1292;48.020;7.822;2023-04-25T09:59:38;3.67;;;2.73;;
2564;SDS011;1292;48.020;7.822;2023-04-25T10:02:10;2.33;;;2.13;;
2564;SDS011;1292;48.020;7.822;2023-04-25T10:04:37;2.27;;;2.07;;
2564;SDS011;1292;48.020;7.822;2023-04-25T10:07:05;1.60;;;1.50;;
2564;SDS011;1292;48.020;7.822;2023-04-25T10:09:33;2.17;;;1.83;;
2564;SDS011;1292;48.020;7.822;2023-04-25T10:12:04;2.17;;;1.97;;
2564;SDS011;1292;48.020;7.822;2023-04-25T10:14:32;2.50;;;1.60;;
2564;SDS011;1292;48.020;7.822;2023-04-25T10:16:59;2.50;;;1.80;;
2564;SDS011;1292;48.020;7.822;2023-04-25T10:19:28;2.03;;;1.67;;
2564;SDS011;1292;48.020;7.822;2023-04-25T10:21:58;3.30;;;2.33;;
2564;SDS011;1292;48.020;7.822;2023-04-25T10:24:32;9.90;;;5.90;;
2564;SDS011;1292;48.020;7.822;2023-04-25T10:26:59;2.83;;;2.63;;
2564;SDS011;1292;48.020;7.822;2023-04-25T10:29:27;5.50;;;3.00;;
2564;SDS011;1292;48.020;7.822;2023-04-25T10:31:54;4.80;;;2.27;;
2564;SDS011;1292;48.020;7.822;2023-04-25T10:34:23;2.47;;;2.27;;
2564;SDS011;1292;48.020;7.822;2023-04-25T10:37:04;3.20;;;2.33;;
2564;SDS011;1292;48.020;7.822;2023-04-25T10:39:34;5.90;;;2.60;;
2564;SDS011;1292;48.020;7.822;2023-04-25T10:42:01;3.03;;;2.37;;
2564;SDS011;1292;48.020;7.822;2023-04-25T10:44:28;2.43;;;2.23;;
2564;SDS011;1292;48.020;7.822;2023-04-25T10:46:56;4.00;;;2.50;;
2564;SDS011;1292;48.020;7.822;2023-04-25T10:49:31;2.60;;;2.40;;
2564;SDS011;1292;48.020;7.822;2023-04-25T10:52:13;2.40;;;2.13;;
2564;SDS011;1292;48.020;7.822;2023-04-25T10:54:41;2.70;;;2.37;;
2564;SDS011;1292;48.020;7.822;2023-04-25T10:59:59;2.90;;;2.50;;
2564;SDS011;1292;48.020;7.822;2023-04-25T11:02:31;2.07;;;1.87;;
2564;SDS011;1292;48.020;7.822;2023-04-25T11:05:02;3.20;;;2.60;;
2564;SDS011;1292;48.020;7.822;2023-04-25T11:07:34;4.13;;;2.40;;
2564;SDS011;1292;48.020;7.822;2023-04-25T11:10:04;3.63;;;3.23;;
2564;SDS011;1292;48.020;7.822;2023-04-25T11:12:32;3.47;;;3.07;;
2564;SDS011;1292;48.020;7.822;2023-04-25T11:15:00;1.90;;;1.80;;
2564;SDS011;1292;48.020;7.822;2023-04-25T11:17:28;2.30;;;2.10;;
2564;SDS011;1292;48.020;7.822;2023-04-25T11:19:55;2.43;;;2.23;;
2564;SDS011;1292;48.020;7.822;2023-04-25T11:22:22;3.20;;;2.23;;
2564;SDS011;1292;48.020;7.822;2023-04-25T11:24:51;2.40;;;2.20;;
2564;SDS011;1292;48.020;7.822;2023-04-25T11:27:18;2.00;;;1.73;;
2564;SDS011;1292;48.020;7.822;2023-04-25T11:29:44;3.33;;;3.00;;
2564;SDS011;1292;48.020;7.822;2023-04-25T11:32:13;2.17;;;1.80;;
2564;SDS011;1292;48.020;7.822;2023-04-25T11:34:42;2.00;;;1.90;;
2564;SDS011;1292;48.020;7.822;2023-04-25T11:37:10;2.00;;;1.80;;
2564;SDS011;1292;48.020;7.822;2023-04-25T11:39:37;2.20;;;1.90;;
2564;SDS011;1292;48.020;7.822;2023-04-25T11:42:05;3.90;;;1.83;;
2564;SDS011;1292;48.020;7.822;2023-04-25T11:44:32;3.83;;;2.57;;
2564;SDS011;1292;48.020;7.822;2023-04-25T11:46:59;5.40;;;2.37;;
2564;SDS011;1292;48.020;7.822;2023-04-25T11:49:30;2.50;;;2.10;;
2564;SDS011;1292;48.020;7.822;2023-04-25T11:51:56;5.90;;;1.90;;
2564;SDS011;1292;48.020;7.822;2023-04-25T11:54:23;2.10;;;2.00;;
2564;SDS011;1292;48.020;7.822;2023-04-25T11:56:51;1.80;;;1.70;;
2564;SDS011;1292;48.020;7.822;2023-04-25T11:59:19;2.53;;;1.87;;
2564;SDS011;1292;48.020;7.822;2023-04-25T12:01:50;2.67;;;2.20;;
2564;SDS011;1292;48.020;7.822;2023-04-25T12:04:17;4.10;;;2.83;;
2564;SDS011;1292;48.020;7.822;2023-04-25T12:06:46;3.17;;;2.83;;
2564;SDS011;1292;48.020;7.822;2023-04-25T12:09:14;3.00;;;2.80;;
2564;SDS011;1292;48.020;7.822;2023-04-25T12:11:43;2.77;;;2.57;;
2564;SDS011;1292;48.020;7.822;2023-04-25T12:14:10;3.63;;;3.33;;
2564;SDS011;1292;48.020;7.822;2023-04-25T12:16:42;2.90;;;2.60;;
2564;SDS011;1292;48.020;7.822;2023-04-25T12:19:13;2.87;;;2.67;;
2564;SDS011;1292;48.020;7.822;2023-04-25T12:21:40;2.60;;;2.40;;
2564;SDS011;1292;48.020;7.822;2023-04-25T12:24:10;2.50;;;2.30;;
2564;SDS011;1292;48.020;7.822;2023-04-25T12:26:45;2.47;;;2.27;;
2564;SDS011;1292;48.020;7.822;2023-04-25T12:29:17;2.30;;;2.10;;
2564;SDS011;1292;48.020;7.822;2023-04-25T12:31:46;2.70;;;2.50;;
2564;SDS011;1292;48.020;7.822;2023-04-25T12:34:13;3.80;;;1.80;;
2564;SDS011;1292;48.020;7.822;2023-04-25T12:36:40;2.37;;;1.90;;
2564;SDS011;1292;48.020;7.822;2023-04-25T12:39:07;1.90;;;1.60;;
2564;SDS011;1292;48.020;7.822;2023-04-25T12:41:35;4.53;;;1.87;;
2564;SDS011;1292;48.020;7.822;2023-04-25T12:44:02;2.30;;;1.93;;
2564;SDS011;1292;48.020;7.822;2023-04-25T12:46:29;1.83;;;1.73;;
2564;SDS011;1292;48.020;7.822;2023-04-25T12:48:57;1.80;;;1.70;;
2564;SDS011;1292;48.020;7.822;2023-04-25T12:51:25;3.47;;;2.20;;
2564;SDS011;1292;48.020;7.822;2023-04-25T12:53:52;2.00;;;1.80;;
2564;SDS011;1292;48.020;7.822;2023-04-25T12:56:19;2.00;;;1.90;;
2564;SDS011;1292;48.020;7.822;2023-04-25T12:58:46;3.23;;;2.20;;
2564;SDS011;1292;48.020;7.822;2023-04-25T13:01:14;1.90;;;1.70;;
2564;SDS011;1292;48.020;7.822;2023-04-25T13:03:40;2.10;;;1.90;;
2564;SDS011;1292;48.020;7.822;2023-04-25T13:06:09;1.83;;;1.73;;
2564;SDS011;1292;48.020;7.822;2023-04-25T13:08:35;1.77;;;1.67;;
2564;SDS011;1292;48.020;7.822;2023-04-25T13:11:03;3.00;;;2.10;;
2564;SDS011;1292;48.020;7.822;2023-04-25T13:13:30;2.30;;;2.00;;
2564;SDS011;1292;48.020;7.822;2023-04-25T13:15:59;1.90;;;1.80;;
2564;SDS011;1292;48.020;7.822;2023-04-25T13:18:26;2.30;;;2.10;;
2564;SDS011;1292;48.020;7.822;2023-04-25T13:20:53;2.30;;;2.10;;
2564;SDS011;1292;48.020;7.822;2023-04-25T13:23:22;1.47;;;1.20;;
2564;SDS011;1292;48.020;7.822;2023-04-25T13:25:49;1.90;;;1.03;;
2564;SDS011;1292;48.020;7.822;2023-04-25T13:28:16;1.20;;;1.10;;
2564;SDS011;1292;48.020;7.822;2023-04-25T13:30:43;0.80;;;0.80;;
2564;SDS011;1292;48.020;7.822;2023-04-25T13:33:10;1.00;;;0.90;;
2564;SDS011;1292;48.020;7.822;2023-04-25T13:35:38;1.30;;;1.20;;
2564;SDS011;1292;48.020;7.822;2023-04-25T13:38:05;1.70;;;1.03;;
2564;SDS011;1292;48.020;7.822;2023-04-25T13:40:33;1.43;;;1.00;;
2564;SDS011;1292;48.020;7.822;2023-04-25T13:43:00;2.57;;;2.37;;
2564;SDS011;1292;48.020;7.822;2023-04-25T13:45:27;1.77;;;1.63;;
2564;SDS011;1292;48.020;7.822;2023-04-25T13:47:54;1.30;;;1.20;;
2564;SDS011;1292;48.020;7.822;2023-04-25T13:50:21;0.97;;;0.90;;
2564;SDS011;1292;48.020;7.822;2023-04-25T13:52:48;1.20;;;1.10;;
2564;SDS011;1292;48.020;7.822;2023-04-25T13:55:15;2.20;;;1.50;;
2564;SDS011;1292;48.020;7.822;2023-04-25T13:57:43;1.57;;;1.47;;
2564;SDS011;1292;48.020;7.822;2023-04-25T14:00:11;1.30;;;1.00;;
2564;SDS011;1292;48.020;7.822;2023-04-25T14:02:38;2.17;;;1.13;;
2564;SDS011;1292;48.020;7.822;2023-04-25T14:05:05;1.20;;;1.10;;
2564;SDS011;1292;48.020;7.822;2023-04-25T14:07:33;4.23;;;3.93;;
2564;SDS011;1292;48.020;7.822;2023-04-25T14:10:00;2.77;;;1.30;;
2564;SDS011;1292;48.020;7.822;2023-04-25T14:12:29;1.50;;;1.40;;
2564;SDS011;1292;48.020;7.822;2023-04-25T14:14:57;1.17;;;1.07;;
2564;SDS011;1292;48.020;7.822;2023-04-25T14:17:24;1.20;;;1.10;;
2564;SDS011;1292;48.020;7.822;2023-04-25T14:19:50;1.10;;;1.00;;
2564;SDS011;1292;48.020;7.822;2023-04-25T14:22:17;4.00;;;1.23;;
2564;SDS011;1292;48.020;7.822;2023-04-25T14:24:44;1.20;;;1.10;;
2564;SDS011;1292;48.020;7.822;2023-04-25T14:27:11;1.37;;;1.27;;
2564;SDS011;1292;48.020;7.822;2023-04-25T14:29:38;1.43;;;1.30;;
2564;SDS011;1292;48.020;7.822;2023-04-25T14:32:06;2.60;;;1.03;;
2564;SDS011;1292;48.020;7.822;2023-04-25T14:34:33;1.30;;;1.10;;
2564;SDS011;1292;48.020;7.822;2023-04-25T14:37:00;1.20;;;1.10;;
2564;SDS011;1292;48.020;7.822;2023-04-25T14:39:27;1.30;;;1.20;;
2564;SDS011;1292;48.020;7.822;2023-04-25T14:41:54;2.90;;;1.10;;
2564;SDS011;1292;48.020;7.822;2023-04-25T14:44:21;1.63;;;1.37;;
2564;SDS011;1292;48.020;7.822;2023-04-25T14:46:48;1.30;;;1.10;;
2564;SDS011;1292;48.020;7.822;2023-04-25T14:49:17;1.33;;;0.90;;
2564;SDS011;1292;48.020;7.822;2023-04-25T14:51:45;0.80;;;0.80;;
2564;SDS011;1292;48.020;7.822;2023-04-25T14:54:11;1.47;;;0.90;;
2564;SDS011;1292;48.020;7.822;2023-04-25T14:56:38;0.97;;;0.90;;
2564;SDS011;1292;48.020;7.822;2023-04-25T14:59:05;1.27;;;1.17;;
2564;SDS011;1292;48.020;7.822;2023-04-25T15:01:32;1.63;;;1.33;;
2564;SDS011;1292;48.020;7.822;2023-04-25T15:03:59;1.13;;;1.00;;
2564;SDS011;1292;48.020;7.822;2023-04-25T15:06:27;1.60;;;1.30;;
2564;SDS011;1292;48.020;7.822;2023-04-25T15:08:55;5.23;;;1.67;;
2564;SDS011;1292;48.020;7.822;2023-04-25T15:11:22;1.20;;;1.10;;
2564;SDS011;1292;48.020;7.822;2023-04-25T15:13:49;4.10;;;3.10;;
2564;SDS011;1292;48.020;7.822;2023-04-25T15:16:16;1.80;;;1.70;;
2564;SDS011;1292;48.020;7.822;2023-04-25T15:18:42;3.00;;;2.70;;
2564;SDS011;1292;48.020;7.822;2023-04-25T15:21:09;1.63;;;1.53;;
2564;SDS011;1292;48.020;7.822;2023-04-25T15:23:37;1.50;;;1.40;;
2564;SDS011;1292;48.020;7.822;2023-04-25T15:26:04;1.50;;;1.40;;
2564;SDS011;1292;48.020;7.822;2023-04-25T15:28:31;1.37;;;1.27;;
2564;SDS011;1292;48.020;7.822;2023-04-25T15:30:58;1.80;;;1.50;;
2564;SDS011;1292;48.020;7.822;2023-04-25T15:33:25;2.10;;;1.90;;
2564;SDS011;1292;48.020;7.822;2023-04-25T15:35:52;2.53;;;1.57;;
2564;SDS011;1292;48.020;7.822;2023-04-25T15:38:19;1.80;;;1.70;;
2564;SDS011;1292;48.020;7.822;2023-04-25T15:40:47;2.57;;;2.13;;
2564;SDS011;1292;48.020;7.822;2023-04-25T15:43:14;2.23;;;2.03;;
2564;SDS011;1292;48.020;7.822;2023-04-25T15:45:41;2.37;;;2.17;;
2564;SDS011;1292;48.020;7.822;2023-04-25T15:48:09;2.83;;;2.53;;
2564;SDS011;1292;48.020;7.822;2023-04-25T15:50:36;1.70;;;1.60;;
2564;SDS011;1292;48.020;7.822;2023-04-25T15:53:03;2.07;;;1.93;;
2564;SDS011;1292;48.020;7.822;2023-04-25T15:55:30;2.60;;;2.40;;
2564;SDS011;1292;48.020;7.822;2023-04-25T15:57:59;2.80;;;2.23;;
2564;SDS011;1292;48.020;7.822;2023-04-25T16:00:26;2.10;;;1.80;;
2564;SDS011;1292;48.020;7.822;2023-04-25T16:02:53;1.83;;;1.67;;
2564;SDS011;1292;48.020;7.822;2023-04-25T16:05:20;7.20;;;6.50;;
2564;SDS011;1292;48.020;7.822;2023-04-25T16:07:47;6.07;;;5.67;;
2564;SDS011;1292;48.020;7.822;2023-04-25T16:10:17;2.00;;;1.90;;
2564;SDS011;1292;48.020;7.822;2023-04-25T16:12:45;2.27;;;1.87;;
2564;SDS011;1292;48.020;7.822;2023-04-25T16:15:14;1.80;;;1.70;;
2564;SDS011;1292;48.020;7.822;2023-04-25T16:17:41;1.77;;;1.67;;
2564;SDS011;1292;48.020;7.822;2023-04-25T16:20:10;3.10;;;1.50;;
2564;SDS011;1292;48.020;7.822;2023-04-25T16:22:38;2.50;;;2.30;;
2564;SDS011;1292;48.020;7.822;2023-04-25T16:25:06;1.80;;;1.70;;
2564;SDS011;1292;48.020;7.822;2023-04-25T16:27:34;4.40;;;2.10;;
2564;SDS011;1292;48.020;7.822;2023-04-25T16:30:03;2.40;;;2.20;;
2564;SDS011;1292;48.020;7.822;2023-04-25T16:32:33;2.07;;;1.60;;
2564;SDS011;1292;48.020;7.822;2023-04-25T16:35:00;2.20;;;2.00;;
2564;SDS011;1292;48.020;7.822;2023-04-25T16:37:27;2.03;;;1.93;;
2564;SDS011;1292;48.020;7.822;2023-04-25T16:39:55;3.10;;;2.67;;
2564;SDS011;1292;48.020;7.822;2023-04-25T16:42:21;2.50;;;2.17;;
2564;SDS011;1292;48.020;7.822;2023-04-25T16:44:48;2.10;;;1.90;;
2564;SDS011;1292;48.020;7.822;2023-04-25T16:47:15;2.83;;;2.63;;
2564;SDS011;1292;48.020;7.822;2023-04-25T16:49:43;8.60;;;2.80;;
2564;SDS011;1292;48.020;7.822;2023-04-25T16:52:10;2.33;;;2.13;;
2564;SDS011;1292;48.020;7.822;2023-04-25T16:54:38;5.77;;;2.90;;
2564;SDS011;1292;48.020;7.822;2023-04-25T16:57:05;4.40;;;3.60;;
2564;SDS011;1292;48.020;7.822;2023-04-25T16:59:34;3.47;;;3.17;;
2564;SDS011;1292;48.020;7.822;2023-04-25T17:02:02;3.10;;;2.90;;
2564;SDS011;1292;48.020;7.822;2023-04-25T17:04:28;3.00;;;2.80;;
2564;SDS011;1292;48.020;7.822;2023-04-25T17:06:57;2.67;;;2.47;;
2564;SDS011;1292;48.020;7.822;2023-04-25T17:09:23;6.70;;;5.40;;
2564;SDS011;1292;48.020;7.822;2023-04-25T17:11:50;3.63;;;3.03;;
2564;SDS011;1292;48.020;7.822;2023-04-25T17:14:17;3.63;;;2.40;;
2564;SDS011;1292;48.020;7.822;2023-04-25T17:16:44;2.00;;;1.90;;
2564;SDS011;1292;48.020;7.822;2023-04-25T17:19:11;2.07;;;1.80;;
2564;SDS011;1292;48.020;7.822;2023-04-25T17:21:38;2.30;;;2.10;;
2564;SDS011;1292;48.020;7.822;2023-04-25T17:24:07;3.77;;;2.73;;
2564;SDS011;1292;48.020;7.822;2023-04-25T17:26:35;5.73;;;2.90;;
2564;SDS011;1292;48.020;7.822;2023-04-25T17:29:02;2.60;;;2.40;;
2564;SDS011;1292;48.020;7.822;2023-04-25T17:31:29;3.70;;;3.40;;
2564;SDS011;1292;48.020;7.822;2023-04-25T17:33:56;4.00;;;3.10;;
2564;SDS011;1292;48.020;7.822;2023-04-25T17:36:23;3.80;;;3.43;;
2564;SDS011;1292;48.020;7.822;2023-04-25T17:38:50;3.87;;;2.93;;
2564;SDS011;1292;48.020;7.822;2023-04-25T17:41:18;4.40;;;2.40;;
2564;SDS011;1292;48.020;7.822;2023-04-25T17:43:45;2.90;;;2.60;;
2564;SDS011;1292;48.020;7.822;2023-04-25T17:46:11;3.27;;;2.10;;
2564;SDS011;1292;48.020;7.822;2023-04-25T17:48:38;7.07;;;2.80;;
2564;SDS011;1292;48.020;7.822;2023-04-25T17:51:05;4.53;;;4.00;;
2564;SDS011;1292;48.020;7.822;2023-04-25T17:53:33;4.40;;;3.43;;
2564;SDS011;1292;48.020;7.822;2023-04-25T17:56:00;4.30;;;3.70;;
2564;SDS011;1292;48.020;7.822;2023-04-25T17:58:29;3.10;;;2.80;;
2564;SDS011;1292;48.020;7.822;2023-04-25T18:00:55;6.03;;;3.47;;
2564;SDS011;1292;48.020;7.822;2023-04-25T18:03:22;3.77;;;3.47;;
2564;SDS011;1292;48.020;7.822;2023-04-25T18:05:50;4.20;;;3.30;;
2564;SDS011;1292;48.020;7.822;2023-04-25T18:08:16;4.97;;;4.40;;
2564;SDS011;1292;48.020;7.822;2023-04-25T18:10:46;5.00;;;4.50;;
2564;SDS011;1292;48.020;7.822;2023-04-25T18:13:13;5.37;;;3.70;;
2564;SDS011;1292;48.020;7.822;2023-04-25T18:15:42;4.80;;;4.20;;
2564;SDS011;1292;48.020;7.822;2023-04-25T18:18:09;3.97;;;3.47;;
2564;SDS011;1292;48.020;7.822;2023-04-25T18:20:44;5.60;;;3.73;;
2564;SDS011;1292;48.020;7.822;2023-04-25T18:23:11;4.90;;;4.20;;
2564;SDS011;1292;48.020;7.822;2023-04-25T18:25:38;6.90;;;5.40;;
2564;SDS011;1292;48.020;7.822;2023-04-25T18:28:05;7.53;;;6.50;;
2564;SDS011;1292;48.020;7.822;2023-04-25T18:30:33;5.67;;;5.10;;
2564;SDS011;1292;48.020;7.822;2023-04-25T18:33:01;3.70;;;3.40;;
2564;SDS011;1292;48.020;7.822;2023-04-25T18:35:28;3.90;;;3.50;;
2564;SDS011;1292;48.020;7.822;2023-04-25T18:37:55;5.60;;;4.80;;
2564;SDS011;1292;48.020;7.822;2023-04-25T18:40:21;6.70;;;4.30;;
2564;SDS011;1292;48.020;7.822;2023-04-25T18:42:48;5.23;;;4.07;;
2564;SDS011;1292;48.020;7.822;2023-04-25T18:45:15;8.57;;;6.13;;
2564;SDS011;1292;48.020;7.822;2023-04-25T18:47:42;8.47;;;6.70;;
2564;SDS011;1292;48.020;7.822;2023-04-25T18:50:11;7.60;;;4.60;;
2564;SDS011;1292;48.020;7.822;2023-04-25T18:52:39;7.13;;;6.63;;
2564;SDS011;1292;48.020;7.822;2023-04-25T18:55:07;4.63;;;4.00;;
2564;SDS011;1292;48.020;7.822;2023-04-25T18:57:35;4.87;;;4.40;;
2564;SDS011;1292;48.020;7.822;2023-04-25T19:00:02;5.77;;;4.83;;
2564;SDS011;1292;48.020;7.822;2023-04-25T19:02:30;6.00;;;5.50;;
2564;SDS011;1292;48.020;7.822;2023-04-25T19:04:57;6.47;;;5.30;;
2564;SDS011;1292;48.020;7.822;2023-04-25T19:07:25;5.60;;;4.20;;
2564;SDS011;1292;48.020;7.822;2023-04-25T19:09:54;6.10;;;4.87;;
2564;SDS011;1292;48.020;7.822;2023-04-25T19:12:21;10.10;;;7.97;;
2564;SDS011;1292;48.020;7.822;2023-04-25T19:14:49;9.93;;;6.77;;
2564;SDS011;1292;48.020;7.822;2023-04-25T19:17:15;10.90;;;6.27;;
2564;SDS011;1292;48.020;7.822;2023-04-25T19:19:42;6.13;;;4.90;;
2564;SDS011;1292;48.020;7.822;2023-04-25T19:22:09;6.53;;;4.70;;
2564;SDS011;1292;48.020;7.822;2023-04-25T19:24:37;5.70;;;5.10;;
2564;SDS011;1292;48.020;7.822;2023-04-25T19:27:05;5.90;;;5.30;;
2564;SDS011;1292;48.020;7.822;2023-04-25T19:29:31;5.37;;;4.70;;
2564;SDS011;1292;48.020;7.822;2023-04-25T19:31:58;7.13;;;6.23;;
2564;SDS011;1292;48.020;7.822;2023-04-25T19:34:27;5.00;;;4.60;;
2564;SDS011;1292;48.020;7.822;2023-04-25T19:36:54;8.90;;;7.37;;
2564;SDS011;1292;48.020;7.822;2023-04-25T19:39:21;15.87;;;14.17;;
2564;SDS011;1292;48.020;7.822;2023-04-25T19:41:49;11.40;;;9.53;;
2564;SDS011;1292;48.020;7.822;2023-04-25T19:44:16;7.43;;;6.73;;
2564;SDS011;1292;48.020;7.822;2023-04-25T19:46:43;9.40;;;7.30;;
2564;SDS011;1292;48.020;7.822;2023-04-25T19:49:10;7.03;;;6.30;;
2564;SDS011;1292;48.020;7.822;2023-04-25T19:51:37;6.67;;;5.97;;
2564;SDS011;1292;48.020;7.822;2023-04-25T19:54:04;6.00;;;5.50;;
2564;SDS011;1292;48.020;7.822;2023-04-25T19:56:31;5.30;;;4.80;;
2564;SDS011;1292;48.020;7.822;2023-04-25T19:58:59;6.40;;;5.30;;
2564;SDS011;1292;48.020;7.822;2023-04-25T20:01:26;5.90;;;4.30;;
2564;SDS011;1292;48.020;7.822;2023-04-25T20:03:54;6.10;;;5.60;;
2564;SDS011;1292;48.020;7.822;2023-04-25T20:06:21;9.00;;;6.57;;
2564;SDS011;1292;48.020;7.822;2023-04-25T20:08:48;6.80;;;6.07;;
2564;SDS011;1292;48.020;7.822;2023-04-25T20:11:15;5.20;;;4.70;;
2564;SDS011;1292;48.020;7.822;2023-04-25T20:13:42;9.40;;;6.77;;
2564;SDS011;1292;48.020;7.822;2023-04-25T20:16:10;4.97;;;4.37;;
2564;SDS011;1292;48.020;7.822;2023-04-25T20:18:37;4.33;;;4.03;;
2564;SDS011;1292;48.020;7.822;2023-04-25T20:21:05;4.53;;;3.50;;
2564;SDS011;1292;48.020;7.822;2023-04-25T20:23:32;5.47;;;4.87;;
2564;SDS011;1292;48.020;7.822;2023-04-25T20:25:59;5.70;;;5.20;;
2564;SDS011;1292;48.020;7.822;2023-04-25T20:28:26;5.90;;;5.40;;
2564;SDS011;1292;48.020;7.822;2023-04-25T20:30:53;5.47;;;4.90;;
2564;SDS011;1292;48.020;7.822;2023-04-25T20:33:21;5.53;;;5.03;;
2564;SDS011;1292;48.020;7.822;2023-04-25T20:35:48;6.03;;;5.37;;
2564;SDS011;1292;48.020;7.822;2023-04-25T20:38:15;5.97;;;5.43;;
2564;SDS011;1292;48.020;7.822;2023-04-25T20:40:42;6.80;;;4.70;;
2564;SDS011;1292;48.020;7.822;2023-04-25T20:43:08;4.17;;;3.77;;
2564;SDS011;1292;48.020;7.822;2023-04-25T20:45:36;3.10;;;2.80;;
2564;SDS011;1292;48.020;7.822;2023-04-25T20:48:03;3.90;;;3.17;;
2564;SDS011;1292;48.020;7.822;2023-04-25T20:50:32;4.10;;;3.40;;
2564;SDS011;1292;48.020;7.822;2023-04-25T20:52:58;3.73;;;3.23;;
2564;SDS011;1292;48.020;7.822;2023-04-25T20:55:25;3.40;;;3.10;;
2564;SDS011;1292;48.020;7.822;2023-04-25T20:57:52;4.50;;;4.10;;
